Time;durP1;ratioP1;P1;durP2;ratioP2;P2;SDS_P1;SDS_P2;PMS_P1;PMS_P2;Temp;Humidity;BMP_temperature;BMP_pressure;BME280_temperature;BME280_humidity;BME280_pressure;Samples;Min_cycle;Max_cycle;Signal;HPM_P1;HPM_P2
2022/06/19 00:04:52;;;;;;;17.20;15.97;;;24.60;23.50;;;;;;5015695;28;20392;-77
2022/06/19 00:07:18;;;;;;;16.97;15.57;;;24.50;23.30;;;;;;4997583;28;21003;-76
2022/06/19 00:09:44;;;;;;;18.03;16.10;;;24.50;23.80;;;;;;4998087;28;20558;-76
2022/06/19 00:12:10;;;;;;;16.37;15.17;;;24.50;23.60;;;;;;4998006;28;20924;-77
2022/06/19 00:14:35;;;;;;;17.10;15.30;;;24.50;23.80;;;;;;4998263;28;20193;-77
2022/06/19 00:17:02;;;;;;;17.93;16.40;;;24.40;23.80;;;;;;4997506;28;20181;-76
2022/06/19 00:19:28;;;;;;;19.73;16.37;;;24.40;24.00;;;;;;4998147;28;20188;-76
2022/06/19 00:21:54;;;;;;;17.40;15.90;;;24.40;24.40;;;;;;4997634;28;20416;-76
2022/06/19 00:24:19;;;;;;;17.63;16.20;;;24.30;24.00;;;;;;4997722;28;20240;-77
2022/06/19 00:26:45;;;;;;;17.83;16.27;;;24.30;24.20;;;;;;4997276;28;20185;-76
2022/06/19 00:29:11;;;;;;;16.00;14.50;;;24.30;23.80;;;;;;5014995;28;20180;-77
2022/06/19 00:31:36;;;;;;;16.87;15.67;;;24.20;24.00;;;;;;4996955;28;20178;-76
2022/06/19 00:34:03;;;;;;;17.13;15.50;;;24.20;24.00;;;;;;4997368;28;20459;-76
2022/06/19 00:36:29;;;;;;;17.27;15.60;;;24.20;24.00;;;;;;4997030;28;20173;-77
2022/06/19 00:38:56;;;;;;;17.87;16.27;;;24.20;24.30;;;;;;4997382;28;20416;-77
2022/06/19 00:41:22;;;;;;;17.57;16.30;;;24.10;24.40;;;;;;4997088;28;20192;-77
2022/06/19 00:43:57;;;;;;;17.07;15.50;;;24.10;24.40;;;;;;4997239;28;20429;-76
2022/06/19 00:46:38;;;;;;;15.90;15.00;;;24.10;24.40;;;;;;4996894;28;20562;-77
2022/06/19 00:49:05;;;;;;;17.43;15.67;;;24.00;24.40;;;;;;4997034;28;20416;-77
2022/06/19 00:51:31;;;;;;;15.50;14.60;;;24.00;24.40;;;;;;4997166;28;20416;-77
2022/06/19 00:53:57;;;;;;;16.27;15.37;;;24.00;24.70;;;;;;4997078;28;20423;-77
2022/06/19 00:56:25;;;;;;;17.20;16.00;;;24.00;24.70;;;;;;4996630;28;20417;-77
2022/06/19 00:58:52;;;;;;;18.90;17.17;;;23.90;25.00;;;;;;4996952;28;20701;-76
2022/06/19 01:01:21;;;;;;;17.87;16.57;;;23.90;25.00;;;;;;4996967;28;20420;-76
2022/06/19 01:04:00;;;;;;;17.37;16.13;;;23.80;25.10;;;;;;4996740;28;20455;-77
2022/06/19 01:06:26;;;;;;;18.43;16.13;;;23.80;25.20;;;;;;4996774;28;20427;-77
2022/06/19 01:08:52;;;;;;;17.03;16.03;;;23.80;25.50;;;;;;4996920;28;20420;-77
2022/06/19 01:11:20;;;;;;;18.50;16.70;;;23.70;25.50;;;;;;4996728;28;20201;-77
2022/06/19 01:13:46;;;;;;;16.63;15.43;;;23.70;25.40;;;;;;5014109;28;20457;-76
2022/06/19 01:16:13;;;;;;;18.50;17.07;;;23.70;25.50;;;;;;4996444;28;20924;-77
2022/06/19 01:18:40;;;;;;;16.63;15.53;;;23.70;25.50;;;;;;4996522;28;20836;-77
2022/06/19 01:21:28;;;;;;;17.50;16.20;;;23.70;25.30;;;;;;4996649;28;20417;-77
2022/06/19 01:24:11;;;;;;;16.73;15.60;;;23.60;25.40;;;;;;4996516;28;20419;-76
2022/06/19 01:26:43;;;;;;;17.65;16.15;;;23.50;25.30;;;;;;5012651;28;20818;-76
2022/06/19 01:29:10;;;;;;;17.63;16.10;;;23.70;25.30;;;;;;5013981;28;20174;-76
2022/06/19 01:31:48;;;;;;;17.23;16.03;;;23.60;25.20;;;;;;4996377;28;20460;-76
2022/06/19 01:34:26;;;;;;;16.67;15.37;;;23.60;25.90;;;;;;4996283;28;20423;-76
2022/06/19 01:37:02;;;;;;;18.63;17.27;;;23.50;26.30;;;;;;4995822;28;20510;-76
2022/06/19 01:39:34;;;;;;;17.37;15.90;;;23.50;26.60;;;;;;4996111;28;20458;-76
2022/06/19 01:42:01;;;;;;;17.50;16.20;;;23.40;26.40;;;;;;4995928;28;20945;-76
2022/06/19 01:44:27;;;;;;;17.47;16.27;;;23.40;26.40;;;;;;4995340;28;20424;-76
2022/06/19 01:46:52;;;;;;;19.87;18.03;;;23.40;25.90;;;;;;4995970;28;20412;-77
2022/06/19 01:49:18;;;;;;;18.20;16.50;;;23.30;26.10;;;;;;4996163;28;20180;-77
2022/06/19 01:51:43;;;;;;;17.67;16.37;;;23.30;25.70;;;;;;4996171;28;20205;-77
2022/06/19 01:54:21;;;;;;;17.77;16.27;;;23.30;25.40;;;;;;4995801;28;20177;-77
2022/06/19 01:56:50;;;;;;;18.23;16.80;;;23.30;25.70;;;;;;4995794;28;20177;-77
2022/06/19 01:59:16;;;;;;;16.70;15.10;;;23.30;26.00;;;;;;4995892;28;20510;-76
2022/06/19 02:01:42;;;;;;;17.60;16.30;;;23.20;26.00;;;;;;4995879;28;20471;-76
2022/06/19 02:04:08;;;;;;;17.70;16.60;;;23.20;26.50;;;;;;4995761;28;20448;-77
2022/06/19 02:06:47;;;;;;;17.93;16.33;;;23.20;26.70;;;;;;4995437;28;20440;-77
2022/06/19 02:09:19;;;;;;;18.13;17.03;;;23.20;26.80;;;;;;4995532;28;20553;-76
2022/06/19 02:11:44;;;;;;;17.97;16.27;;;23.20;26.50;;;;;;4995617;28;20412;-76
2022/06/19 02:14:12;;;;;;;18.20;16.87;;;23.20;26.10;;;;;;4995386;28;20427;-76
2022/06/19 02:16:40;;;;;;;17.30;16.30;;;23.20;25.90;;;;;;4995348;28;20708;-75
2022/06/19 02:19:07;;;;;;;16.50;15.57;;;23.20;26.20;;;;;;4995281;28;20913;-75
2022/06/19 02:22:16;;;;;;;17.77;16.40;;;23.10;26.00;;;;;;4995279;28;20409;-76
2022/06/19 02:24:42;;;;;;;16.90;15.70;;;23.10;26.00;;;;;;4995373;28;20439;-76
2022/06/19 02:27:09;;;;;;;18.23;17.07;;;23.10;25.60;;;;;;4994805;28;20439;-76
2022/06/19 02:29:37;;;;;;;17.10;15.60;;;23.10;26.00;;;;;;4995511;28;20817;-76
2022/06/19 02:32:04;;;;;;;17.80;16.53;;;23.10;26.20;;;;;;4996131;28;20840;-76
2022/06/19 02:34:37;;;;;;;18.03;16.63;;;23.10;25.90;;;;;;4996305;28;20456;-76
2022/06/19 02:37:10;;;;;;;17.53;16.43;;;23.10;25.70;;;;;;4997435;28;20415;-76
2022/06/19 02:39:50;;;;;;;17.00;15.80;;;23.10;25.80;;;;;;4997043;28;20535;-76
2022/06/19 02:42:22;;;;;;;16.37;15.03;;;23.10;25.70;;;;;;4997627;28;20426;-75
2022/06/19 02:45:05;;;;;;;17.13;15.37;;;23.10;24.60;;;;;;4997235;28;20831;-75
2022/06/19 02:47:35;;;;;;;16.53;15.67;;;23.10;24.80;;;;;;4994922;28;20432;-76
2022/06/19 02:50:01;;;;;;;15.50;14.63;;;23.10;24.70;;;;;;5012646;28;20444;-76
2022/06/19 02:52:27;;;;;;;18.23;16.77;;;23.10;25.10;;;;;;4995009;28;20427;-76
2022/06/19 02:54:53;;;;;;;18.43;15.70;;;23.10;24.60;;;;;;4994801;28;20170;-76
2022/06/19 02:57:18;;;;;;;17.20;15.70;;;23.10;24.90;;;;;;4994563;28;20416;-76
2022/06/19 03:03:35;;;;;;;16.83;15.27;;;23.10;24.60;;;;;;5012559;28;20188;-77
2022/06/19 03:06:02;;;;;;;17.10;16.00;;;23.10;24.90;;;;;;4993953;28;20420;-76
2022/06/19 03:08:27;;;;;;;17.03;15.77;;;23.00;24.70;;;;;;4994867;28;20412;-76
2022/06/19 03:10:53;;;;;;;16.53;15.43;;;23.00;24.90;;;;;;4994886;28;20472;-76
2022/06/19 03:13:20;;;;;;;16.27;15.13;;;23.10;25.00;;;;;;4994765;28;20173;-76
2022/06/19 03:15:46;;;;;;;16.73;15.43;;;23.00;25.40;;;;;;4994970;28;20174;-76
2022/06/19 03:18:12;;;;;;;16.80;15.40;;;23.00;24.70;;;;;;4994468;28;20419;-76
2022/06/19 03:20:37;;;;;;;17.53;16.00;;;22.90;25.30;;;;;;4994862;28;20514;-76
2022/06/19 03:23:03;;;;;;;17.57;16.20;;;23.00;25.70;;;;;;4994556;28;20192;-76
2022/06/19 03:25:28;;;;;;;17.47;16.23;;;22.90;25.80;;;;;;5012219;28;20173;-76
2022/06/19 03:27:54;;;;;;;17.47;15.80;;;22.90;26.40;;;;;;4994544;28;20224;-76
2022/06/19 03:30:20;;;;;;;17.40;16.40;;;22.90;26.30;;;;;;4994696;28;20261;-76
2022/06/19 03:32:47;;;;;;;17.23;15.73;;;22.90;27.00;;;;;;4994697;28;20175;-76
2022/06/19 03:35:14;;;;;;;17.57;15.87;;;22.80;26.90;;;;;;4994656;28;20833;-76
2022/06/19 03:37:40;;;;;;;18.63;17.20;;;22.70;26.70;;;;;;4994235;28;20417;-76
2022/06/19 03:40:07;;;;;;;16.97;15.97;;;22.80;27.20;;;;;;4994290;28;20852;-76
2022/06/19 03:42:33;;;;;;;17.90;16.30;;;22.80;26.90;;;;;;4994360;28;20416;-76
2022/06/19 03:44:58;;;;;;;18.00;16.70;;;22.80;26.80;;;;;;4994366;28;20451;-77
2022/06/19 03:47:26;;;;;;;16.67;15.67;;;22.80;26.80;;;;;;4994368;28;20566;-76
2022/06/19 03:49:52;;;;;;;17.57;15.93;;;22.80;26.80;;;;;;5012267;28;20348;-77
2022/06/19 03:52:19;;;;;;;17.13;15.90;;;22.70;27.00;;;;;;4994147;28;20405;-75
2022/06/19 03:54:44;;;;;;;16.70;15.67;;;22.70;27.40;;;;;;4994510;28;20499;-75
2022/06/19 03:57:14;;;;;;;16.57;15.67;;;22.70;27.80;;;;;;4994140;28;20853;-77
2022/06/19 03:59:40;;;;;;;18.07;16.57;;;22.70;27.70;;;;;;4994755;28;20177;-76
2022/06/19 04:02:08;;;;;;;17.93;16.20;;;22.70;27.10;;;;;;4994534;28;20781;-76
2022/06/19 04:04:41;;;;;;;17.27;16.00;;;22.60;27.50;;;;;;4994713;28;20457;-76
2022/06/19 04:07:11;;;;;;;16.70;15.53;;;22.70;28.10;;;;;;4994977;28;20565;-77
2022/06/19 04:09:37;;;;;;;17.03;15.60;;;22.60;27.20;;;;;;4997995;28;20562;-76
2022/06/19 04:12:03;;;;;;;18.67;17.10;;;22.70;27.50;;;;;;4998117;28;20924;-77
2022/06/19 04:14:29;;;;;;;16.90;15.90;;;22.70;27.40;;;;;;4998167;28;20435;-77
2022/06/19 04:16:55;;;;;;;18.23;17.00;;;22.70;27.70;;;;;;4997703;28;20413;-77
2022/06/19 04:19:20;;;;;;;16.80;15.40;;;22.60;27.60;;;;;;4998153;28;20227;-76
2022/06/19 04:21:46;;;;;;;16.33;15.13;;;22.70;27.70;;;;;;4998239;28;20178;-76
2022/06/19 04:24:14;;;;;;;17.90;16.57;;;22.70;27.30;;;;;;4997987;28;20197;-77
2022/06/19 04:26:41;;;;;;;16.27;15.27;;;22.70;27.20;;;;;;4997593;28;20408;-77
2022/06/19 04:29:08;;;;;;;18.87;17.20;;;22.70;27.30;;;;;;4998025;28;20935;-77
2022/06/19 04:31:34;;;;;;;16.73;15.53;;;22.80;27.70;;;;;;4997873;28;20455;-77
2022/06/19 04:34:00;;;;;;;18.67;16.93;;;22.80;27.20;;;;;;4997779;28;20929;-76
2022/06/19 04:36:28;;;;;;;17.00;15.80;;;22.90;27.00;;;;;;4997086;28;20613;-76
2022/06/19 04:39:02;;;;;;;17.73;16.20;;;22.90;27.40;;;;;;4995490;28;20982;-78
2022/06/19 04:41:36;;;;;;;18.53;16.90;;;22.90;27.30;;;;;;4996499;28;20427;-79
2022/06/19 04:44:03;;;;;;;18.67;17.07;;;23.00;27.40;;;;;;4998031;28;20450;-79
2022/06/19 04:46:29;;;;;;;17.63;16.23;;;23.10;27.30;;;;;;4997203;28;20419;-80
2022/06/19 04:48:56;;;;;;;17.43;15.90;;;23.10;27.30;;;;;;4997465;28;20420;-80
2022/06/19 04:51:22;;;;;;;16.00;15.00;;;23.10;27.10;;;;;;4997463;28;20299;-80
2022/06/19 04:53:47;;;;;;;16.87;15.87;;;23.10;27.30;;;;;;4997598;28;20500;-79
2022/06/19 04:56:18;;;;;;;17.80;16.00;;;23.20;28.20;;;;;;5014669;28;20349;-79
2022/06/19 04:58:44;;;;;;;16.77;15.53;;;23.20;27.50;;;;;;4997707;28;20432;-79
2022/06/19 05:01:22;;;;;;;16.80;15.50;;;23.30;27.00;;;;;;4996560;28;20773;-79
2022/06/19 05:03:47;;;;;;;16.40;15.10;;;23.30;27.20;;;;;;4995864;28;20821;-80
2022/06/19 05:06:13;;;;;;;16.87;15.60;;;23.40;27.50;;;;;;4996272;28;20423;-80
2022/06/19 05:08:39;;;;;;;17.63;16.23;;;23.40;27.30;;;;;;5014603;28;20181;-80
2022/06/19 05:11:04;;;;;;;19.13;17.20;;;23.40;26.90;;;;;;4996058;28;20243;-77
2022/06/19 05:13:30;;;;;;;17.77;16.17;;;23.50;26.70;;;;;;5014165;28;20201;-76
2022/06/19 05:16:08;;;;;;;16.87;15.60;;;23.50;26.40;;;;;;4996465;28;20177;-77
2022/06/19 05:21:07;;;;;;;17.10;16.13;;;23.60;26.50;;;;;;5003739;23;20519;-80
2022/06/19 05:28:10;;;;;;;16.03;15.10;;;23.90;24.80;;;;;;5050929;28;20544;-80
2022/06/19 05:41:13;;;;;;;17.83;16.43;;;24.20;23.80;;;;;;4937327;29;20776;-80
2022/06/19 05:44:00;;;;;;;19.73;18.07;;;24.30;22.90;;;;;;4952709;29;20437;-80
2022/06/19 05:46:26;;;;;;;16.73;15.40;;;24.40;23.60;;;;;;4951899;29;20437;-80
2022/06/19 05:48:51;;;;;;;16.77;15.23;;;24.40;23.40;;;;;;4992606;28;20425;-80
2022/06/19 05:52:07;;;;;;;16.03;14.73;;;24.40;23.20;;;;;;4994269;28;20236;-80
2022/06/19 06:13:51;;;;;;;16.67;15.57;;;24.80;24.00;;;;;;5071984;28;20481;-80
2022/06/19 06:16:54;;;;;;;17.43;16.00;;;24.90;23.80;;;;;;5089954;28;20405;-82
2022/06/19 06:33:25;;;;;;;17.33;15.97;;;25.30;23.80;;;;;;4951713;29;20462;-80
2022/06/19 06:43:53;;;;;;;17.30;16.23;;;25.50;23.40;;;;;;4951177;29;20943;-78
2022/06/19 06:46:22;;;;;;;18.23;16.87;;;25.60;23.40;;;;;;4925269;29;20429;-79
2022/06/19 06:48:49;;;;;;;18.60;16.77;;;25.70;23.30;;;;;;4954339;28;20418;-78
2022/06/19 06:51:18;;;;;;;18.03;16.70;;;25.80;23.60;;;;;;5067678;28;20456;-77
2022/06/19 06:53:46;;;;;;;17.90;16.30;;;25.90;23.50;;;;;;5092208;28;20405;-77
2022/06/19 06:56:11;;;;;;;17.70;16.40;;;25.90;23.50;;;;;;5073412;28;20419;-75
2022/06/19 06:58:38;;;;;;;17.70;16.03;;;26.00;23.30;;;;;;5073858;28;20499;-76
2022/06/19 07:01:16;;;;;;;18.20;16.60;;;26.10;23.20;;;;;;5073789;28;20265;-78
2022/06/19 07:03:44;;;;;;;18.10;16.47;;;26.20;22.70;;;;;;5073765;28;20470;-78
2022/06/19 07:06:13;;;;;;;18.03;16.57;;;26.30;23.10;;;;;;5073581;28;20468;-76
2022/06/19 07:08:40;;;;;;;18.00;16.73;;;26.40;22.90;;;;;;5074221;28;20833;-76
2022/06/19 07:11:05;;;;;;;18.57;16.97;;;26.40;22.20;;;;;;5074269;28;20503;-75
2022/06/19 07:13:31;;;;;;;49.70;25.30;;;26.40;22.80;;;;;;5073174;28;20460;-75
2022/06/19 07:15:57;;;;;;;19.00;17.77;;;26.40;22.60;;;;;;5073940;28;20202;-74
2022/06/19 07:18:22;;;;;;;18.50;17.10;;;26.60;22.00;;;;;;5074392;28;20411;-74
2022/06/19 07:20:48;;;;;;;18.87;16.97;;;26.70;21.70;;;;;;5074660;28;20174;-74
2022/06/19 07:23:14;;;;;;;18.40;16.53;;;26.70;21.80;;;;;;5074029;28;20216;-74
2022/06/19 07:25:40;;;;;;;19.07;17.30;;;26.80;22.40;;;;;;5074332;28;20182;-74
2022/06/19 07:28:06;;;;;;;18.37;17.03;;;26.80;21.70;;;;;;5073677;28;20178;-74
2022/06/19 07:30:32;;;;;;;19.83;18.13;;;26.90;21.40;;;;;;5073850;28;20916;-73
2022/06/19 07:32:58;;;;;;;19.53;17.93;;;27.10;21.70;;;;;;5073747;28;20292;-73
2022/06/19 07:35:24;;;;;;;18.60;16.90;;;27.10;21.90;;;;;;5072880;28;20218;-72
2022/06/19 07:37:53;;;;;;;17.50;16.30;;;27.30;21.40;;;;;;5061734;28;20708;-74
2022/06/19 07:40:20;;;;;;;18.63;17.40;;;27.30;22.00;;;;;;5073684;28;20423;-74
2022/06/19 07:42:46;;;;;;;18.57;16.97;;;27.40;22.10;;;;;;5075448;28;20561;-72
2022/06/19 07:45:12;;;;;;;19.27;17.60;;;27.50;21.30;;;;;;5096030;28;20835;-73
2022/06/19 07:50:23;;;;;;;20.13;18.63;;;27.60;21.70;;;;;;5095891;28;20209;-74
2022/06/19 07:52:50;;;;;;;20.80;19.37;;;27.60;21.50;;;;;;5077422;28;20421;-74
2022/06/19 07:55:22;;;;;;;19.23;18.10;;;27.70;21.80;;;;;;5077287;28;20497;-73
2022/06/19 07:57:48;;;;;;;19.00;17.70;;;27.80;22.00;;;;;;5077176;28;20408;-72
2022/06/19 08:00:24;;;;;;;18.50;17.20;;;27.80;22.20;;;;;;5080217;28;20448;-76
2022/06/19 08:02:52;;;;;;;19.60;17.90;;;27.80;22.00;;;;;;5067481;28;20415;-76
2022/06/19 08:05:19;;;;;;;18.37;17.20;;;27.90;22.30;;;;;;5062337;28;20421;-75
2022/06/19 08:07:45;;;;;;;20.47;18.83;;;28.00;21.80;;;;;;5057915;28;20421;-72
2022/06/19 08:10:26;;;;;;;19.67;18.33;;;28.00;21.70;;;;;;5059111;28;20507;-73
2022/06/19 08:12:53;;;;;;;19.30;17.90;;;28.10;21.80;;;;;;5058842;28;20429;-75
2022/06/19 08:15:22;;;;;;;17.90;16.87;;;28.20;22.00;;;;;;5059974;28;20517;-75
2022/06/19 08:17:48;;;;;;;20.43;18.33;;;28.20;21.90;;;;;;5057008;28;20828;-75
2022/06/19 08:20:18;;;;;;;20.30;18.80;;;28.30;21.30;;;;;;5056910;28;20422;-76
2022/06/19 08:22:44;;;;;;;21.27;19.70;;;28.40;21.00;;;;;;5057139;28;20417;-75
2022/06/19 08:25:12;;;;;;;22.93;21.03;;;28.60;20.60;;;;;;5056964;28;20432;-75
2022/06/19 08:27:42;;;;;;;21.87;20.50;;;28.80;19.60;;;;;;5056791;28;20179;-76
2022/06/19 08:30:15;;;;;;;22.70;21.40;;;29.00;18.50;;;;;;5056534;28;20982;-75
2022/06/19 08:32:41;;;;;;;23.50;22.10;;;29.10;18.40;;;;;;5060708;28;20419;-76
2022/06/19 08:35:07;;;;;;;23.23;21.80;;;29.20;18.30;;;;;;5066747;28;20584;-76
2022/06/19 08:37:35;;;;;;;22.80;21.40;;;29.40;17.70;;;;;;5065727;28;20178;-76
2022/06/19 08:40:07;;;;;;;24.87;23.03;;;29.50;17.70;;;;;;5066760;28;20768;-75
2022/06/19 08:42:35;;;;;;;23.27;21.50;;;29.50;17.90;;;;;;5066735;28;20401;-75
2022/06/19 08:45:01;;;;;;;22.87;21.40;;;29.60;17.60;;;;;;5067325;28;20462;-75
2022/06/19 08:48:01;;;;;;;23.70;22.20;;;29.70;17.60;;;;;;5060525;28;20807;-78
2022/06/19 08:50:35;;;;;;;24.53;22.57;;;29.80;17.30;;;;;;5056053;28;20203;-75
2022/06/19 08:53:03;;;;;;;25.33;23.47;;;29.80;16.90;;;;;;5055617;28;20882;-74
2022/06/19 08:55:53;;;;;;;24.63;22.90;;;30.00;15.70;;;;;;5056117;28;20409;-75
2022/06/19 08:58:47;;;;;;;25.53;23.20;;;30.10;15.20;;;;;;5055573;28;20422;-76
2022/06/19 09:01:24;;;;;;;25.57;23.30;;;30.20;14.10;;;;;;5052697;28;20826;-75
2022/06/19 09:11:33;;;;;;;22.63;20.93;;;30.70;10.50;;;;;;4914205;29;20476;-76
2022/06/19 09:14:30;;;;;;;21.73;19.93;;;30.90;9.40;;;;;;4933671;29;21049;-77
2022/06/19 09:17:28;;;;;;;21.23;19.90;;;31.20;8.20;;;;;;4916858;29;20419;-74
2022/06/19 09:20:36;;;;;;;21.47;19.90;;;31.30;7.50;;;;;;4914534;29;20833;-73
2022/06/19 09:23:32;;;;;;;21.40;20.00;;;31.40;7.90;;;;;;4991213;28;20421;-74
2022/06/19 09:26:20;;;;;;;20.10;18.80;;;31.50;7.80;;;;;;4983920;28;20420;-76
2022/06/19 09:28:55;;;;;;;20.37;18.83;;;31.60;7.40;;;;;;5055331;28;20453;-76
2022/06/19 09:31:53;;;;;;;19.33;17.90;;;31.60;6.40;;;;;;5054279;28;20461;-76
2022/06/19 09:34:28;;;;;;;23.27;21.47;;;31.70;5.70;;;;;;5055255;28;20488;-75
2022/06/19 09:37:09;;;;;;;19.93;18.43;;;31.80;6.50;;;;;;5072760;28;20409;-76
2022/06/19 09:40:20;;;;;;;19.50;18.00;;;31.90;5.10;;;;;;5054486;28;20435;-75
2022/06/19 09:43:23;;;;;;;18.40;17.20;;;32.00;5.70;;;;;;5042914;28;20420;-76
2022/06/19 09:46:02;;;;;;;26.30;24.43;;;32.20;4.90;;;;;;5002882;28;20484;-75
2022/06/19 09:48:49;;;;;;;20.50;19.13;;;32.10;6.40;;;;;;5055134;28;20413;-75
2022/06/19 09:51:40;;;;;;;21.10;19.40;;;32.30;5.00;;;;;;5054384;28;20449;-77
2022/06/19 09:54:14;;;;;;;21.67;19.77;;;32.30;5.60;;;;;;5055111;28;20826;-75
2022/06/19 09:56:46;;;;;;;18.53;17.30;;;32.30;5.80;;;;;;5054749;28;20413;-75
2022/06/19 09:59:43;;;;;;;19.13;17.83;;;32.50;5.40;;;;;;5055029;28;20420;-77
2022/06/19 10:02:46;;;;;;;17.97;16.93;;;32.60;3.40;;;;;;5049742;28;20444;-76
2022/06/19 10:05:27;;;;;;;18.40;17.20;;;32.70;3.70;;;;;;5048595;28;20509;-75
2022/06/19 10:08:43;;;;;;;18.87;17.30;;;32.70;3.50;;;;;;5052067;28;20428;-74
2022/06/19 10:12:19;;;;;;;19.30;17.83;;;32.80;3.10;;;;;;4960790;28;20609;-74
2022/06/19 10:15:37;;;;;;;18.40;17.20;;;32.80;2.40;;;;;;4942571;28;20455;-74
2022/06/19 10:25:53;;;;;;;19.20;17.60;;;33.00;3.20;;;;;;4971502;28;20397;-74
2022/06/19 10:38:49;;;;;;;18.03;16.83;;;33.00;2.40;;;;;;4975311;28;20822;-75
2022/06/19 10:42:07;;;;;;;19.63;18.27;;;33.10;2.50;;;;;;4978946;28;20831;-73
2022/06/19 10:45:11;;;;;;;19.63;18.00;;;33.20;2.30;;;;;;4984803;28;20444;-74
2022/06/19 10:47:50;;;;;;;19.53;18.13;;;33.30;2.60;;;;;;5008819;28;20450;-76
2022/06/19 10:50:37;;;;;;;19.10;17.70;;;33.30;2.50;;;;;;4991971;28;20459;-75
2022/06/19 10:54:03;;;;;;;18.90;17.60;;;33.40;2.60;;;;;;5039517;28;20422;-75
2022/06/19 10:57:06;;;;;;;19.13;17.60;;;33.40;2.70;;;;;;5069507;28;20421;-75
2022/06/19 10:59:59;;;;;;;19.27;18.17;;;33.40;1.90;;;;;;5047875;28;20417;-75
2022/06/19 11:05:38;;;;;;;19.87;18.33;;;33.50;2.30;;;;;;5071268;28;20405;-75
2022/06/19 11:08:07;;;;;;;19.43;17.50;;;33.50;2.70;;;;;;5053129;28;20425;-75
2022/06/19 11:10:44;;;;;;;18.77;17.67;;;33.70;1.40;;;;;;5053148;28;20460;-74
2022/06/19 11:13:12;;;;;;;19.17;17.80;;;33.70;2.10;;;;;;5053501;28;20463;-74
2022/06/19 11:15:45;;;;;;;19.40;17.67;;;33.70;1.80;;;;;;5054450;28;20417;-74
2022/06/19 11:18:13;;;;;;;19.80;18.50;;;33.80;1.20;;;;;;5058547;28;20413;-76
2022/06/19 11:20:58;;;;;;;17.80;16.50;;;33.90;1.00;;;;;;5058193;28;20420;-76
2022/06/19 11:23:46;;;;;;;18.20;16.90;;;33.70;1.50;;;;;;5057558;28;20416;-75
2022/06/19 11:26:27;;;;;;;18.93;17.83;;;33.90;1.00;;;;;;5042302;28;20417;-74
2022/06/19 11:29:06;;;;;;;18.60;17.10;;;33.90;1.00;;;;;;5057930;28;20413;-75
2022/06/19 11:31:35;;;;;;;18.50;16.90;;;34.00;1.00;;;;;;5057721;28;20460;-74
2022/06/19 11:34:43;;;;;;;17.60;15.97;;;33.90;1.00;;;;;;5058347;28;20867;-74
2022/06/19 11:37:28;;;;;;;18.23;16.80;;;33.90;1.00;;;;;;5075635;28;20413;-73
2022/06/19 11:39:57;;;;;;;17.90;16.40;;;34.00;1.00;;;;;;5058622;28;20421;-72
2022/06/19 11:42:33;;;;;;;19.40;18.03;;;34.20;1.00;;;;;;5057646;28;20425;-72
2022/06/19 11:45:26;;;;;;;18.47;17.00;;;34.10;1.00;;;;;;5057667;28;20532;-75
2022/06/19 11:47:54;;;;;;;18.23;16.50;;;34.10;1.00;;;;;;5057269;28;20421;-75
2022/06/19 11:50:37;;;;;;;17.90;16.70;;;34.20;1.00;;;;;;5057664;28;20457;-75
2022/06/19 11:53:06;;;;;;;18.20;16.67;;;34.20;1.00;;;;;;5057422;28;20523;-75
2022/06/19 11:55:31;;;;;;;18.10;16.70;;;34.20;1.00;;;;;;5057506;28;20774;-75
2022/06/19 11:58:00;;;;;;;19.17;17.60;;;34.30;1.00;;;;;;5057401;28;20412;-75
2022/06/19 12:00:35;;;;;;;23.00;21.20;;;34.30;1.00;;;;;;5057501;28;20698;-75
2022/06/19 12:03:28;;;;;;;18.10;16.80;;;34.30;1.00;;;;;;5057085;28;20939;-75
2022/06/19 12:06:04;;;;;;;19.33;17.93;;;34.30;1.00;;;;;;5057269;28;20432;-77
2022/06/19 12:08:34;;;;;;;19.03;17.67;;;34.30;1.00;;;;;;5075195;28;20413;-77
2022/06/19 12:11:03;;;;;;;19.00;17.50;;;34.30;1.00;;;;;;5058683;28;20538;-79
2022/06/19 12:13:32;;;;;;;19.53;18.00;;;34.40;1.00;;;;;;5058877;28;20425;-78
2022/06/19 12:16:17;;;;;;;18.97;17.27;;;34.50;1.00;;;;;;5057267;28;20413;-78
2022/06/19 12:18:43;;;;;;;19.77;18.07;;;34.50;1.00;;;;;;5058416;28;20462;-78
2022/06/19 12:21:32;;;;;;;18.03;16.90;;;34.30;1.00;;;;;;5058261;28;20424;-78
2022/06/19 12:24:15;;;;;;;18.50;17.10;;;34.30;1.00;;;;;;5067286;28;20437;-78
2022/06/19 12:26:48;;;;;;;18.93;17.77;;;34.60;1.00;;;;;;5073703;28;20878;-78
2022/06/19 12:29:31;;;;;;;18.97;17.70;;;34.60;1.00;;;;;;5073949;28;20425;-78
2022/06/19 12:32:04;;;;;;;18.47;16.97;;;34.60;1.00;;;;;;5073741;28;20435;-78
2022/06/19 12:34:43;;;;;;;18.07;17.03;;;34.60;1.00;;;;;;5074828;28;20442;-78
2022/06/19 12:37:17;;;;;;;19.13;17.60;;;34.70;1.00;;;;;;5073416;28;20425;-78
2022/06/19 12:39:44;;;;;;;18.77;17.53;;;35.00;1.00;;;;;;5073535;28;20416;-79
2022/06/19 12:42:46;;;;;;;18.23;16.93;;;35.10;1.00;;;;;;5073305;28;20445;-78
2022/06/19 12:45:35;;;;;;;18.40;16.90;;;35.10;1.00;;;;;;5071748;28;20905;-78
2022/06/19 12:48:10;;;;;;;17.43;16.30;;;35.10;1.00;;;;;;5071348;28;20444;-78
2022/06/19 12:50:55;;;;;;;18.10;16.90;;;35.20;1.00;;;;;;5056678;28;20491;-78
2022/06/19 12:53:31;;;;;;;19.87;18.20;;;35.20;1.00;;;;;;5072712;28;20413;-78
2022/06/19 12:56:02;;;;;;;18.40;16.77;;;35.30;1.00;;;;;;5056095;28;20505;-78
2022/06/19 12:58:46;;;;;;;18.88;16.98;;;35.60;1.00;;;;;;5056392;28;20417;-79
2022/06/19 13:01:29;;;;;;;18.00;16.70;;;35.80;1.00;;;;;;5057164;28;20182;-78
2022/06/19 13:04:02;;;;;;;18.70;17.30;;;35.80;1.00;;;;;;5073308;28;20425;-79
2022/06/19 13:06:43;;;;;;;18.00;16.70;;;35.70;1.00;;;;;;5072292;28;20410;-78
2022/06/19 13:09:32;;;;;;;18.00;16.80;;;35.80;1.00;;;;;;5056242;28;20413;-78
2022/06/19 13:12:20;;;;;;;18.40;17.20;;;36.00;1.00;;;;;;5072454;28;20425;-79
2022/06/19 13:15:04;;;;;;;18.83;17.50;;;36.00;1.00;;;;;;5072712;28;20839;-78
2022/06/19 13:17:44;;;;;;;18.23;16.67;;;36.00;1.00;;;;;;5072380;28;20891;-78
2022/06/19 13:20:35;;;;;;;17.23;16.13;;;36.00;1.00;;;;;;5072884;28;20414;-78
2022/06/19 13:23:08;;;;;;;17.17;15.83;;;35.90;1.00;;;;;;5073086;28;20426;-78
2022/06/19 13:25:37;;;;;;;18.63;16.80;;;35.90;1.00;;;;;;5056404;28;20410;-78
2022/06/19 13:28:26;;;;;;;16.90;15.97;;;35.90;1.00;;;;;;5074209;28;20459;-78
2022/06/19 13:31:11;;;;;;;18.37;16.77;;;35.90;1.00;;;;;;5016573;28;20797;-78
2022/06/19 13:34:15;;;;;;;18.87;17.40;;;36.10;1.00;;;;;;5073252;28;20417;-77
2022/06/19 13:37:00;;;;;;;19.43;17.67;;;36.10;1.00;;;;;;5074298;28;20413;-77
2022/06/19 13:39:49;;;;;;;17.43;16.20;;;36.10;1.00;;;;;;5048099;23;21003;-77
2022/06/19 13:42:17;;;;;;;17.93;16.53;;;36.10;1.00;;;;;;5055564;28;20453;-77
2022/06/19 13:44:51;;;;;;;18.23;16.83;;;36.10;1.00;;;;;;5036017;28;20411;-77
2022/06/19 13:47:35;;;;;;;18.67;17.37;;;36.20;1.00;;;;;;5034802;28;20450;-77
2022/06/19 13:50:24;;;;;;;17.17;16.07;;;36.20;1.00;;;;;;5030022;28;20458;-77
2022/06/19 13:53:19;;;;;;;19.33;18.13;;;36.20;1.00;;;;;;5034134;28;20418;-77
2022/06/19 13:56:10;;;;;;;18.10;16.87;;;36.20;1.00;;;;;;5026446;28;20446;-77
2022/06/19 13:59:03;;;;;;;17.93;16.73;;;36.20;1.00;;;;;;5024942;28;20403;-77
2022/06/19 14:02:02;;;;;;;17.97;16.73;;;36.30;1.00;;;;;;5035658;28;20426;-77
2022/06/19 14:04:47;;;;;;;17.83;16.80;;;36.50;1.00;;;;;;5035685;28;20425;-77
2022/06/19 14:07:22;;;;;;;17.53;16.43;;;36.40;1.00;;;;;;5035162;28;20925;-77
2022/06/19 14:09:55;;;;;;;17.43;16.13;;;36.50;1.00;;;;;;5035725;28;20500;-77
2022/06/19 14:12:28;;;;;;;18.33;16.90;;;36.50;1.00;;;;;;5035500;28;20470;-77
2022/06/19 14:15:02;;;;;;;19.10;17.60;;;36.60;1.00;;;;;;5033581;28;20972;-77
2022/06/19 14:17:27;;;;;;;18.03;16.50;;;36.60;1.00;;;;;;5033038;28;20410;-77
2022/06/19 14:20:22;;;;;;;18.57;16.83;;;36.50;1.00;;;;;;5035187;28;20421;-77
2022/06/19 14:22:58;;;;;;;18.33;16.60;;;36.50;1.00;;;;;;5033824;28;20244;-77
2022/06/19 14:25:37;;;;;;;18.23;16.73;;;36.50;1.00;;;;;;5034490;28;20513;-77
2022/06/19 14:28:22;;;;;;;19.40;17.63;;;36.50;1.00;;;;;;5034619;28;20918;-77
2022/06/19 14:30:53;;;;;;;17.90;16.63;;;36.60;1.00;;;;;;5034558;28;20462;-77
2022/06/19 14:33:39;;;;;;;19.13;17.30;;;36.70;1.00;;;;;;5034244;28;20415;-78
2022/06/19 14:36:09;;;;;;;17.40;16.17;;;36.80;1.00;;;;;;5034334;28;20410;-78
2022/06/19 14:38:35;;;;;;;17.10;16.00;;;36.70;1.00;;;;;;5035042;28;20517;-78
2022/06/19 14:41:27;;;;;;;18.63;16.77;;;36.60;1.00;;;;;;5034751;28;20514;-78
2022/06/19 14:44:04;;;;;;;18.07;16.73;;;36.60;1.00;;;;;;5026998;28;20915;-78
2022/06/19 14:46:53;;;;;;;18.13;16.70;;;36.70;1.00;;;;;;5035746;28;20891;-78